GRZ570 Details

Departure: (PAKN)
Arrival: (PACD)
Route: AKN J115 CDB


Current Weather Information
PAKN 171654Z 36012KT 10SM SCT060 15/11 A3034 RMK AO2 SLP272 T01500106
PACD 171653Z 34015KT 10SM FEW010 14/12 A3041 RMK AO2 SLP299 T01440122